Time;durP1;ratioP1;P1;durP2;ratioP2;P2;SDS_P1;SDS_P2;PMS_P1;PMS_P2;Temp;Humidity;BMP_temperature;BMP_pressure;BME280_temperature;BME280_humidity;BME280_pressure;Samples;Min_cycle;Max_cycle;Signal;HPM_P1;HPM_P2
2022/03/08 00:01:45;;;;;;;27.63;18.25;;;-0.60;92.40;;;;;;5045831;28;20021;-77
2022/03/08 00:04:11;;;;;;;26.33;16.52;;;-0.60;92.70;;;;;;5034870;28;20040;-79
2022/03/08 00:06:37;;;;;;;23.92;17.48;;;-0.60;92.70;;;;;;5050674;28;20017;-77
2022/03/08 00:09:03;;;;;;;24.65;17.45;;;-0.60;92.60;;;;;;5049215;28;20048;-79
2022/03/08 00:11:28;;;;;;;22.90;17.75;;;-0.60;92.50;;;;;;5027789;28;20018;-77
2022/03/08 00:13:54;;;;;;;24.20;16.45;;;-0.70;92.80;;;;;;5031436;28;20033;-78
2022/03/08 00:16:20;;;;;;;21.58;17.48;;;-0.70;92.80;;;;;;5035885;28;20079;-78
2022/03/08 00:18:48;;;;;;;25.17;17.75;;;-0.60;92.70;;;;;;5022898;28;20494;-78
2022/03/08 00:21:15;;;;;;;20.48;15.68;;;-0.70;92.90;;;;;;5048414;28;20037;-78
2022/03/08 00:23:40;;;;;;;22.20;17.25;;;-0.70;93.00;;;;;;5032608;28;20087;-76
2022/03/08 00:26:06;;;;;;;22.05;16.75;;;-0.70;93.20;;;;;;5016560;28;20454;-75
2022/03/08 00:28:32;;;;;;;23.77;17.40;;;-0.60;93.10;;;;;;5028407;28;20030;-76
2022/03/08 00:30:57;;;;;;;20.90;16.67;;;-0.50;92.80;;;;;;5016499;28;20049;-76
2022/03/08 00:33:24;;;;;;;24.40;17.42;;;-0.40;92.40;;;;;;5039726;28;20075;-76
2022/03/08 00:35:49;;;;;;;26.40;18.35;;;-0.40;92.30;;;;;;5024203;28;20026;-78
2022/03/08 00:38:15;;;;;;;26.52;18.02;;;-0.20;92.70;;;;;;5050290;28;20038;-81
2022/03/08 00:40:41;;;;;;;21.67;16.67;;;-0.20;92.30;;;;;;5052719;28;20028;-79
2022/03/08 00:43:07;;;;;;;26.77;17.40;;;-0.20;92.10;;;;;;5036817;28;20040;-78
2022/03/08 00:45:33;;;;;;;20.95;16.30;;;-0.30;92.20;;;;;;5034597;28;20452;-79
2022/03/08 00:47:58;;;;;;;25.48;17.52;;;-0.30;92.20;;;;;;5035051;28;20033;-78
2022/03/08 00:50:26;;;;;;;26.75;16.75;;;-0.40;92.50;;;;;;5035991;28;20021;-79
2022/03/08 00:52:53;;;;;;;21.42;15.90;;;-0.50;92.70;;;;;;5048441;28;20021;-79
2022/03/08 00:55:20;;;;;;;21.55;17.30;;;-0.60;92.80;;;;;;5034815;28;20036;-79
2022/03/08 00:57:47;;;;;;;30.63;17.52;;;-0.70;93.10;;;;;;5029734;28;20025;-80
2022/03/08 01:00:15;;;;;;;24.30;17.88;;;-0.70;93.50;;;;;;5034260;28;20033;-79
2022/03/08 01:02:41;;;;;;;22.52;15.93;;;-0.70;93.30;;;;;;5035575;28;20084;-79
2022/03/08 01:05:08;;;;;;;21.45;15.68;;;-0.60;93.20;;;;;;5024192;28;20526;-78
2022/03/08 01:07:34;;;;;;;22.05;17.80;;;-0.50;92.70;;;;;;5044120;28;20037;-78
2022/03/08 01:10:00;;;;;;;21.27;16.17;;;-0.40;92.40;;;;;;5034455;28;20025;-79
2022/03/08 01:12:25;;;;;;;19.23;14.93;;;-0.40;92.30;;;;;;5036522;28;20056;-85
2022/03/08 01:14:51;;;;;;;17.88;14.65;;;-0.50;92.30;;;;;;5044726;28;20013;-84
2022/03/08 01:17:18;;;;;;;17.25;14.57;;;-0.40;92.10;;;;;;5044677;28;20030;-85
2022/03/08 01:19:43;;;;;;;17.08;13.85;;;-0.40;92.20;;;;;;5039794;28;20033;-84
2022/03/08 01:22:11;;;;;;;19.17;14.93;;;-0.40;92.20;;;;;;5060350;28;20097;-83
2022/03/08 01:24:37;;;;;;;18.10;13.27;;;-0.30;92.00;;;;;;5063120;28;20025;-84
2022/03/08 01:27:03;;;;;;;17.27;13.52;;;-0.40;92.00;;;;;;5045174;28;20040;-85
2022/03/08 01:29:28;;;;;;;18.02;14.07;;;-0.40;92.00;;;;;;5075511;28;20018;-86
2022/03/08 01:31:54;;;;;;;20.05;13.77;;;-0.30;91.80;;;;;;5073522;28;20040;-85
2022/03/08 01:34:20;;;;;;;20.00;14.48;;;-0.30;91.90;;;;;;5073631;28;20025;-85
2022/03/08 01:36:47;;;;;;;19.38;14.25;;;-0.40;91.70;;;;;;5071772;28;20018;-86
2022/03/08 01:39:13;;;;;;;20.05;13.60;;;-0.30;91.90;;;;;;5048979;28;20030;-84
2022/03/08 01:41:39;;;;;;;25.17;14.32;;;-0.50;92.00;;;;;;5036606;28;20101;-85
2022/03/08 01:44:08;;;;;;;17.85;14.05;;;-0.40;92.00;;;;;;5043981;28;20029;-85
2022/03/08 01:46:35;;;;;;;20.05;14.57;;;-0.60;92.20;;;;;;5044895;28;20025;-85
2022/03/08 01:49:02;;;;;;;18.80;13.60;;;-0.70;92.70;;;;;;5047766;28;20017;-84
2022/03/08 01:51:28;;;;;;;19.60;13.50;;;-0.80;92.80;;;;;;5042948;28;20026;-83
2022/03/08 01:53:53;;;;;;;16.73;14.23;;;-0.80;93.10;;;;;;5045672;28;20028;-84
2022/03/08 01:56:19;;;;;;;16.02;13.77;;;-0.80;93.10;;;;;;5050323;28;20095;-85
2022/03/08 01:58:45;;;;;;;17.92;13.38;;;-0.90;93.10;;;;;;5060546;28;20026;-83
2022/03/08 02:01:10;;;;;;;21.50;15.80;;;-0.90;93.50;;;;;;5042149;28;20044;-84
2022/03/08 02:03:36;;;;;;;17.17;13.25;;;-0.90;93.40;;;;;;5048904;28;20032;-84
2022/03/08 02:06:02;;;;;;;17.48;14.25;;;-0.90;94.00;;;;;;5064929;28;20036;-84
2022/03/08 02:08:28;;;;;;;20.13;14.60;;;-1.00;93.90;;;;;;5047505;28;20032;-86
2022/03/08 02:10:53;;;;;;;15.73;13.07;;;-1.10;94.20;;;;;;5037644;28;20033;-84
2022/03/08 02:13:20;;;;;;;19.23;14.27;;;-1.20;94.40;;;;;;5059368;28;20089;-85
2022/03/08 02:15:50;;;;;;;16.67;12.90;;;-1.20;94.90;;;;;;5045611;28;20031;-84
2022/03/08 02:18:16;;;;;;;19.77;13.15;;;-1.30;94.80;;;;;;5060542;28;20055;-85
2022/03/08 02:20:42;;;;;;;17.60;12.85;;;-1.30;95.10;;;;;;5055935;28;20045;-86
2022/03/08 02:23:07;;;;;;;19.23;14.45;;;-1.40;95.40;;;;;;5043620;28;20425;-84
2022/03/08 02:25:33;;;;;;;16.85;12.52;;;-1.40;95.50;;;;;;5045313;28;20028;-84
2022/03/08 02:27:59;;;;;;;16.00;12.73;;;-1.20;95.30;;;;;;5044494;28;20033;-84
2022/03/08 02:30:25;;;;;;;15.25;12.55;;;-1.30;95.50;;;;;;5040823;28;20021;-84
2022/03/08 02:32:52;;;;;;;19.30;13.65;;;-1.30;95.70;;;;;;5037540;28;20104;-85
2022/03/08 02:35:20;;;;;;;14.02;12.25;;;-1.40;95.60;;;;;;5044130;28;20112;-84
2022/03/08 02:38:01;;;;;;;17.50;12.48;;;-1.30;95.80;;;;;;5029783;28;20052;-84
2022/03/08 02:40:32;;;;;;;15.68;12.43;;;-1.40;95.80;;;;;;5041389;28;20026;-85
2022/03/08 02:42:58;;;;;;;;;;;-1.40;96.00;;;;;;5045165;28;20096;-86
2022/03/08 02:45:24;;;;;;;14.43;12.18;;;-1.40;96.00;;;;;;5046003;28;19958;-84
2022/03/08 02:47:50;;;;;;;16.80;12.75;;;-1.50;95.90;;;;;;5041865;28;20025;-85
2022/03/08 02:50:16;;;;;;;16.88;12.25;;;-1.40;96.00;;;;;;5048418;28;20022;-84
2022/03/08 02:52:44;;;;;;;18.00;12.85;;;-1.40;95.70;;;;;;5063225;28;20017;-84
2022/03/08 02:55:11;;;;;;;17.08;12.18;;;-1.40;96.20;;;;;;5047675;28;20089;-84
2022/03/08 02:57:38;;;;;;;14.77;12.68;;;-1.50;96.30;;;;;;5042394;28;20021;-85
2022/03/08 03:00:06;;;;;;;19.27;13.32;;;-1.60;96.80;;;;;;5047589;28;20694;-83
2022/03/08 03:02:31;;;;;;;16.00;12.10;;;-1.70;97.10;;;;;;5042799;28;20093;-83
2022/03/08 03:04:57;;;;;;;17.98;14.13;;;-1.70;97.10;;;;;;5047359;28;20025;-84
2022/03/08 03:07:26;;;;;;;21.52;12.45;;;-1.70;97.40;;;;;;5041383;28;20616;-83
2022/03/08 03:09:52;;;;;;;17.15;13.25;;;-1.60;97.10;;;;;;5055002;28;20029;-85
2022/03/08 03:12:18;;;;;;;22.40;13.52;;;-1.60;97.40;;;;;;5054915;28;20029;-84
2022/03/08 03:14:43;;;;;;;21.75;13.63;;;-1.70;97.40;;;;;;5058222;28;20033;-84
2022/03/08 03:17:09;;;;;;;14.98;12.95;;;-1.80;97.70;;;;;;5058112;28;20041;-85
2022/03/08 03:19:35;;;;;;;16.52;13.15;;;-1.70;98.10;;;;;;5058146;28;20040;-85
2022/03/08 03:22:01;;;;;;;19.35;13.77;;;-1.70;98.10;;;;;;5058075;28;20068;-86
2022/03/08 03:24:27;;;;;;;14.68;12.57;;;-1.70;98.30;;;;;;5057494;28;20017;-86
2022/03/08 03:26:53;;;;;;;18.23;12.90;;;-1.70;98.30;;;;;;5057408;28;20037;-84
2022/03/08 03:29:18;;;;;;;14.02;12.52;;;-1.80;98.40;;;;;;5058050;28;20037;-86
2022/03/08 03:31:44;;;;;;;15.40;12.60;;;-1.90;98.50;;;;;;5055752;28;20033;-83
2022/03/08 03:34:10;;;;;;;18.80;13.25;;;-2.00;98.90;;;;;;5052432;28;20032;-86
2022/03/08 03:36:36;;;;;;;15.57;12.27;;;-1.90;99.40;;;;;;5051898;28;20057;-85
2022/03/08 03:39:02;;;;;;;16.88;13.02;;;-1.90;99.20;;;;;;5072237;28;20140;-86
2022/03/08 03:41:28;;;;;;;17.40;12.43;;;-1.80;99.10;;;;;;5056017;28;20052;-86
2022/03/08 03:43:53;;;;;;;16.10;12.85;;;-1.80;98.70;;;;;;5050949;28;20045;-84
2022/03/08 03:46:19;;;;;;;17.25;11.77;;;-1.80;98.80;;;;;;5037601;28;20081;-84
2022/03/08 03:48:44;;;;;;;19.50;12.95;;;-1.80;98.40;;;;;;5044822;28;20077;-83
2022/03/08 03:51:11;;;;;;;16.25;11.93;;;-1.90;98.90;;;;;;5047650;28;20032;-86
2022/03/08 03:53:36;;;;;;;16.13;12.40;;;-1.90;98.90;;;;;;5057046;28;20098;-84
2022/03/08 03:56:02;;;;;;;17.33;13.60;;;-1.80;98.80;;;;;;5034565;28;20033;-84
2022/03/08 03:58:28;;;;;;;17.27;13.25;;;-1.80;98.80;;;;;;5039182;28;20083;-87
2022/03/08 04:00:53;;;;;;;17.30;12.63;;;-1.70;98.40;;;;;;5045223;28;20464;-84
2022/03/08 04:03:19;;;;;;;15.05;11.57;;;-1.70;98.20;;;;;;5037145;28;20093;-84
2022/03/08 04:05:44;;;;;;;15.82;11.90;;;-1.70;98.20;;;;;;5044278;28;20025;-84
2022/03/08 04:08:10;;;;;;;19.85;12.55;;;-1.60;98.30;;;;;;5045530;28;20122;-85
2022/03/08 04:10:37;;;;;;;20.42;13.13;;;-1.60;98.10;;;;;;5046321;28;20044;-83
2022/03/08 04:13:03;;;;;;;16.92;13.02;;;-1.60;98.10;;;;;;5050388;28;20021;-85
2022/03/08 04:15:29;;;;;;;20.10;13.38;;;-1.60;98.00;;;;;;5058489;28;20034;-86
2022/03/08 04:17:54;;;;;;;20.65;13.23;;;-1.70;98.30;;;;;;5058972;28;20044;-86
2022/03/08 04:20:20;;;;;;;17.05;13.27;;;-1.90;98.90;;;;;;5056185;28;20033;-85
2022/03/08 04:22:46;;;;;;;19.15;12.93;;;-1.90;99.00;;;;;;5073474;28;20036;-86
2022/03/08 04:25:11;;;;;;;18.15;12.52;;;-1.90;99.10;;;;;;5059927;28;20033;-86
2022/03/08 04:27:38;;;;;;;16.80;12.88;;;-1.90;99.20;;;;;;5057457;28;20052;-85
2022/03/08 04:30:08;;;;;;;19.60;14.35;;;-1.90;99.20;;;;;;5053708;28;20047;-86
2022/03/08 04:32:34;;;;;;;14.88;11.77;;;-2.00;99.50;;;;;;5048896;28;20009;-85
2022/03/08 04:35:00;;;;;;;16.65;12.75;;;-1.90;99.30;;;;;;5037475;28;20036;-83
2022/03/08 04:37:26;;;;;;;16.67;13.55;;;-1.90;99.50;;;;;;5040306;28;20066;-85
2022/03/08 04:39:51;;;;;;;16.75;12.88;;;-1.60;99.10;;;;;;5067901;28;20482;-84
2022/03/08 04:42:17;;;;;;;17.73;13.00;;;-1.40;98.40;;;;;;5056141;28;20081;-85
2022/03/08 04:44:43;;;;;;;19.20;12.13;;;-1.30;98.20;;;;;;5058008;28;20037;-84
2022/03/08 04:47:08;;;;;;;18.23;13.10;;;-1.30;98.00;;;;;;5056102;28;20038;-85
2022/03/08 04:49:34;;;;;;;20.80;13.45;;;-1.30;98.00;;;;;;5073429;28;20024;-86
2022/03/08 04:51:59;;;;;;;18.83;13.18;;;-1.50;98.10;;;;;;5073725;28;20019;-86
2022/03/08 04:54:25;;;;;;;16.75;13.15;;;-1.50;98.20;;;;;;5072813;28;20068;-87
2022/03/08 04:56:51;;;;;;;15.52;13.18;;;-1.60;98.30;;;;;;5057279;28;20013;-87
2022/03/08 04:59:17;;;;;;;22.88;14.23;;;-1.70;99.10;;;;;;5045783;28;20153;-85
2022/03/08 05:01:44;;;;;;;18.08;12.57;;;-1.90;99.10;;;;;;5039070;28;20017;-85
2022/03/08 05:04:10;;;;;;;18.95;13.60;;;-2.00;99.80;;;;;;5049672;28;20551;-83
2022/03/08 05:06:35;;;;;;;17.17;12.68;;;-2.10;99.90;;;;;;5048842;28;20034;-83
2022/03/08 05:09:01;;;;;;;16.85;12.52;;;-2.10;99.90;;;;;;5044707;28;20006;-84
2022/03/08 05:11:27;;;;;;;21.15;12.85;;;-2.10;99.90;;;;;;5057487;28;20093;-83
2022/03/08 05:13:52;;;;;;;19.20;12.38;;;-2.00;99.90;;;;;;5074396;28;20045;-86
2022/03/08 05:16:18;;;;;;;20.70;13.45;;;-2.10;99.90;;;;;;5057629;28;20025;-85
2022/03/08 05:18:43;;;;;;;15.52;12.70;;;-2.10;99.90;;;;;;5050178;28;20094;-84
2022/03/08 05:21:09;;;;;;;16.88;12.88;;;-2.10;99.90;;;;;;5054411;28;20155;-86
2022/03/08 05:23:34;;;;;;;18.05;13.07;;;-2.10;99.90;;;;;;5057467;28;20025;-84
2022/03/08 05:26:00;;;;;;;15.35;11.95;;;-2.20;99.90;;;;;;5041908;28;20036;-85
2022/03/08 05:28:26;;;;;;;17.90;13.30;;;-2.20;99.90;;;;;;5043904;28;20042;-85
2022/03/08 05:30:51;;;;;;;18.27;13.73;;;-2.20;99.90;;;;;;5043748;28;20029;-84
2022/03/08 05:33:17;;;;;;;19.10;12.82;;;-2.20;99.90;;;;;;5046490;28;20113;-85
2022/03/08 05:35:42;;;;;;;17.85;12.90;;;-2.30;99.90;;;;;;5058164;28;20029;-84
2022/03/08 05:38:08;;;;;;;19.08;13.77;;;-2.30;99.90;;;;;;5061056;28;20113;-85
2022/03/08 05:40:33;;;;;;;22.27;12.90;;;-2.30;99.90;;;;;;5036975;28;20101;-84
2022/03/08 05:43:01;;;;;;;17.70;13.18;;;-2.30;99.90;;;;;;5059380;28;20033;-85
2022/03/08 05:45:27;;;;;;;17.77;13.05;;;-2.30;99.90;;;;;;5063197;28;20026;-85
2022/03/08 05:47:53;;;;;;;18.42;13.82;;;-2.40;99.90;;;;;;5065500;28;20029;-84
2022/03/08 05:50:18;;;;;;;18.65;13.10;;;-2.30;99.90;;;;;;5065052;28;20036;-84
2022/03/08 05:52:44;;;;;;;16.35;12.07;;;-2.20;99.90;;;;;;5049536;28;20041;-84
2022/03/08 05:55:10;;;;;;;14.98;11.70;;;-2.10;99.90;;;;;;5049432;28;20017;-85
2022/03/08 05:57:35;;;;;;;15.40;12.00;;;-2.00;99.90;;;;;;5060381;28;20030;-85
2022/03/08 06:00:01;;;;;;;13.70;11.82;;;-2.00;99.90;;;;;;5063342;28;20038;-85
2022/03/08 06:02:27;;;;;;;20.60;12.45;;;-2.00;99.90;;;;;;5045183;28;20029;-84
2022/03/08 06:04:52;;;;;;;17.42;12.30;;;-2.10;99.90;;;;;;5043088;28;20050;-85
2022/03/08 06:07:20;;;;;;;16.85;11.30;;;-2.10;99.90;;;;;;5064130;28;20037;-85
2022/03/08 06:09:45;;;;;;;18.17;13.88;;;-2.00;99.90;;;;;;5048444;28;20022;-84
2022/03/08 06:12:11;;;;;;;15.25;12.50;;;-2.00;99.90;;;;;;5038234;28;20049;-85
2022/03/08 06:14:36;;;;;;;13.02;11.30;;;-1.90;99.90;;;;;;5035638;28;20032;-84
2022/03/08 06:17:02;;;;;;;17.33;11.48;;;-1.80;99.90;;;;;;5043761;28;20061;-85
2022/03/08 06:19:28;;;;;;;19.13;14.15;;;-1.60;99.90;;;;;;5043931;28;20076;-85
2022/03/08 06:21:53;;;;;;;16.55;11.65;;;-1.30;99.90;;;;;;5047934;28;20045;-83
2022/03/08 06:24:19;;;;;;;17.50;12.40;;;-1.30;99.90;;;;;;5038738;28;20036;-86
2022/03/08 06:26:44;;;;;;;15.73;12.30;;;-1.30;99.90;;;;;;5047762;28;20021;-85
2022/03/08 06:29:10;;;;;;;17.23;12.00;;;-1.20;99.80;;;;;;5043988;28;20037;-84
2022/03/08 06:31:36;;;;;;;17.08;11.82;;;-1.10;98.60;;;;;;5064142;28;20029;-86
2022/03/08 06:34:02;;;;;;;17.77;13.02;;;-1.00;99.10;;;;;;5059741;28;20029;-85
2022/03/08 06:36:27;;;;;;;15.63;11.57;;;-1.10;98.60;;;;;;5048765;28;20557;-82
2022/03/08 06:38:53;;;;;;;16.08;12.30;;;-1.10;98.40;;;;;;5047812;28;20033;-85
2022/03/08 06:41:19;;;;;;;14.90;11.23;;;-1.10;98.60;;;;;;5047592;28;20033;-86
2022/03/08 06:43:44;;;;;;;15.52;11.13;;;-1.10;98.50;;;;;;5062632;28;20026;-84
2022/03/08 06:46:10;;;;;;;19.65;12.07;;;-1.00;98.40;;;;;;5047342;28;20045;-83
2022/03/08 06:48:36;;;;;;;12.48;10.65;;;-0.90;98.70;;;;;;5049593;28;20022;-84
2022/03/08 06:51:02;;;;;;;17.75;10.77;;;-0.80;98.20;;;;;;5059162;28;20453;-85
2022/03/08 06:53:27;;;;;;;15.68;11.30;;;-0.60;98.30;;;;;;5055192;28;20026;-84
2022/03/08 06:55:53;;;;;;;18.58;11.70;;;-0.60;96.80;;;;;;5053079;28;20026;-84
2022/03/08 06:58:19;;;;;;;15.27;10.98;;;-0.50;96.70;;;;;;5035220;28;20579;-84
2022/03/08 07:00:44;;;;;;;13.70;10.23;;;-0.40;96.50;;;;;;5038231;28;20036;-83
2022/03/08 07:03:10;;;;;;;18.85;10.52;;;-0.30;96.30;;;;;;5045689;28;20108;-86
2022/03/08 07:05:38;;;;;;;14.43;9.90;;;-0.20;96.10;;;;;;5047622;28;20446;-84
2022/03/08 07:08:04;;;;;;;15.85;11.48;;;0.00;95.40;;;;;;5047161;28;20022;-85
2022/03/08 07:10:30;;;;;;;17.38;9.57;;;0.10;95.20;;;;;;5046795;28;20025;-86
2022/03/08 07:12:56;;;;;;;16.42;9.27;;;0.40;94.50;;;;;;5047029;28;20032;-87
2022/03/08 07:15:22;;;;;;;12.23;10.02;;;0.40;94.20;;;;;;5043876;28;20041;-87
2022/03/08 07:17:47;;;;;;;21.70;10.45;;;0.40;94.30;;;;;;5041345;28;20026;-85
2022/03/08 07:20:14;;;;;;;15.70;9.25;;;0.50;94.30;;;;;;5046728;28;20037;-84
2022/03/08 07:22:40;;;;;;;13.02;9.45;;;0.50;94.20;;;;;;5060724;28;20405;-85
2022/03/08 07:25:07;;;;;;;11.60;8.73;;;0.60;93.70;;;;;;5039641;28;20029;-86
2022/03/08 07:27:33;;;;;;;12.27;8.75;;;0.60;93.40;;;;;;5043587;28;20025;-84
2022/03/08 07:29:58;;;;;;;12.85;9.95;;;0.70;93.00;;;;;;5042657;28;20025;-86
2022/03/08 07:32:24;;;;;;;9.85;8.75;;;0.90;93.00;;;;;;5054020;28;20108;-80
2022/03/08 07:34:50;;;;;;;9.82;8.82;;;1.10;92.40;;;;;;5034823;28;20021;-81
2022/03/08 07:37:15;;;;;;;13.13;9.38;;;1.20;92.50;;;;;;5050673;28;20124;-80
2022/03/08 07:39:41;;;;;;;12.20;8.32;;;1.50;92.10;;;;;;5031697;28;20026;-79
2022/03/08 07:42:07;;;;;;;10.38;8.88;;;1.50;92.00;;;;;;5036050;28;20120;-80
2022/03/08 07:44:32;;;;;;;12.68;8.75;;;1.70;91.50;;;;;;5039787;28;20024;-79
2022/03/08 07:46:59;;;;;;;17.20;9.40;;;1.90;91.00;;;;;;5054888;28;20109;-79
2022/03/08 07:49:25;;;;;;;14.48;8.68;;;2.00;91.00;;;;;;5034299;28;20033;-79
2022/03/08 07:51:51;;;;;;;10.27;8.40;;;1.90;91.10;;;;;;5037249;28;20500;-79
2022/03/08 07:54:17;;;;;;;10.65;8.60;;;2.20;90.90;;;;;;5036808;28;20033;-80
2022/03/08 07:56:43;;;;;;;10.52;8.20;;;2.20;90.40;;;;;;5036457;28;20120;-80
2022/03/08 07:59:10;;;;;;;12.57;8.93;;;2.40;90.50;;;;;;5038473;28;20057;-80
2022/03/08 08:01:36;;;;;;;9.82;8.82;;;2.60;90.10;;;;;;5052548;28;20036;-79
2022/03/08 08:04:02;;;;;;;12.30;9.40;;;2.60;89.60;;;;;;5038174;28;20034;-80
2022/03/08 08:06:28;;;;;;;10.88;9.77;;;2.90;89.30;;;;;;5037375;28;20021;-79
2022/03/08 08:08:53;;;;;;;10.88;8.15;;;3.00;88.20;;;;;;5052443;28;20033;-79
2022/03/08 08:11:19;;;;;;;12.75;8.82;;;3.10;88.80;;;;;;5050356;28;20108;-77
2022/03/08 08:13:45;;;;;;;10.27;8.80;;;3.10;88.30;;;;;;5044251;28;20025;-77
2022/03/08 08:16:10;;;;;;;11.32;9.55;;;3.30;87.70;;;;;;5035751;28;20082;-77
2022/03/08 08:18:36;;;;;;;13.02;11.10;;;3.40;87.80;;;;;;5049197;28;20022;-77
2022/03/08 08:21:02;;;;;;;16.85;8.93;;;3.30;87.70;;;;;;5049225;28;20025;-77
2022/03/08 08:23:27;;;;;;;16.92;9.45;;;3.60;87.80;;;;;;5038262;28;20129;-78
2022/03/08 08:25:53;;;;;;;16.95;10.40;;;3.70;87.00;;;;;;5033099;28;20018;-79
2022/03/08 08:28:19;;;;;;;15.38;8.60;;;3.60;86.90;;;;;;5031349;28;20041;-77
2022/03/08 08:30:44;;;;;;;10.70;9.02;;;3.70;86.70;;;;;;5031253;28;20017;-78
2022/03/08 08:33:10;;;;;;;10.00;8.88;;;3.80;85.60;;;;;;5032341;28;20025;-78
2022/03/08 08:35:36;;;;;;;11.70;8.93;;;3.90;85.10;;;;;;5032256;28;20025;-78
2022/03/08 08:38:01;;;;;;;10.65;8.75;;;3.80;86.10;;;;;;5033628;28;20041;-76
2022/03/08 08:40:28;;;;;;;12.23;9.13;;;3.90;85.90;;;;;;5032486;28;20029;-77
2022/03/08 08:42:53;;;;;;;11.55;9.55;;;4.00;86.30;;;;;;5047229;28;20037;-77
2022/03/08 08:45:19;;;;;;;13.93;9.40;;;3.90;86.80;;;;;;5032097;28;20032;-77
2022/03/08 08:47:45;;;;;;;12.25;8.90;;;4.10;85.80;;;;;;5032760;28;20450;-78
2022/03/08 08:50:11;;;;;;;9.60;8.60;;;4.40;84.70;;;;;;5032777;28;20025;-77
2022/03/08 08:52:36;;;;;;;11.07;8.68;;;4.50;85.10;;;;;;5032377;28;20022;-76
2022/03/08 08:55:02;;;;;;;12.07;8.07;;;4.60;84.50;;;;;;5035138;28;20056;-77
2022/03/08 08:57:28;;;;;;;9.95;7.40;;;4.70;83.90;;;;;;5034520;28;20022;-78
2022/03/08 08:59:53;;;;;;;6.95;5.85;;;4.70;82.80;;;;;;5047952;28;20040;-77
2022/03/08 09:02:19;;;;;;;6.35;5.80;;;4.90;82.60;;;;;;5029918;28;20042;-77
2022/03/08 09:04:44;;;;;;;5.82;5.22;;;5.00;81.10;;;;;;5032240;28;20021;-77
2022/03/08 09:07:11;;;;;;;11.27;6.45;;;5.00;80.60;;;;;;5017462;28;20053;-77
2022/03/08 09:09:36;;;;;;;8.73;6.50;;;5.10;80.90;;;;;;5047738;28;20506;-78
2022/03/08 09:12:02;;;;;;;8.30;6.43;;;5.20;80.60;;;;;;5018288;28;20030;-77
2022/03/08 09:14:28;;;;;;;6.75;6.15;;;5.20;80.50;;;;;;5029472;28;20022;-78
2022/03/08 09:16:54;;;;;;;8.30;6.45;;;5.30;80.70;;;;;;5032585;28;20034;-77
2022/03/08 09:19:19;;;;;;;8.50;6.30;;;5.40;80.10;;;;;;5024957;28;20552;-79
2022/03/08 09:21:45;;;;;;;9.27;6.47;;;5.40;79.50;;;;;;5046694;28;20052;-78
2022/03/08 09:24:10;;;;;;;7.07;6.32;;;5.30;79.60;;;;;;5031818;28;20026;-78
2022/03/08 09:26:36;;;;;;;8.93;6.15;;;5.40;78.80;;;;;;5032252;28;20025;-78
2022/03/08 09:29:01;;;;;;;6.78;5.90;;;5.50;79.30;;;;;;5030066;28;20022;-78
2022/03/08 09:31:27;;;;;;;12.80;7.90;;;5.60;78.40;;;;;;5026633;28;20052;-77
2022/03/08 09:33:53;;;;;;;6.60;5.88;;;5.70;78.00;;;;;;5031498;28;20096;-77
2022/03/08 09:36:18;;;;;;;7.85;5.32;;;5.70;78.10;;;;;;5030504;28;20113;-78
2022/03/08 09:38:44;;;;;;;8.35;7.15;;;5.80;77.40;;;;;;5028598;28;20053;-77
2022/03/08 09:41:11;;;;;;;12.98;5.72;;;5.80;77.20;;;;;;5045933;28;20022;-77
2022/03/08 09:43:38;;;;;;;9.38;5.97;;;5.90;77.00;;;;;;5027176;28;20067;-77
2022/03/08 09:46:04;;;;;;;9.15;6.40;;;6.00;76.40;;;;;;5032034;28;20589;-77
2022/03/08 09:48:30;;;;;;;8.00;6.65;;;6.20;75.80;;;;;;5021427;28;20062;-78
2022/03/08 09:51:00;;;;;;;8.00;6.38;;;6.20;75.00;;;;;;5032306;28;20022;-77
2022/03/08 09:53:29;;;;;;;11.13;6.03;;;6.30;75.30;;;;;;5028222;28;20044;-76
2022/03/08 09:55:59;;;;;;;6.90;5.85;;;6.40;74.50;;;;;;5048501;28;20460;-77
2022/03/08 09:58:26;;;;;;;9.40;6.22;;;6.50;74.40;;;;;;5033461;28;20375;-76
2022/03/08 10:00:53;;;;;;;6.32;5.30;;;6.40;74.60;;;;;;5020785;28;20040;-78
2022/03/08 10:03:35;;;;;;;7.65;5.75;;;6.60;74.40;;;;;;5030169;28;20029;-78
2022/03/08 10:06:05;;;;;;;10.65;6.63;;;6.70;73.80;;;;;;5048025;28;20056;-77
2022/03/08 10:08:31;;;;;;;8.18;6.35;;;6.70;73.10;;;;;;5042655;28;20028;-77
2022/03/08 10:11:12;;;;;;;7.65;5.75;;;6.80;72.20;;;;;;5032113;28;20021;-78
2022/03/08 10:13:46;;;;;;;7.90;5.78;;;6.80;71.80;;;;;;5025067;28;20026;-77
2022/03/08 10:16:42;;;;;;;7.30;5.78;;;6.90;71.80;;;;;;5034842;28;20088;-77
2022/03/08 10:19:09;;;;;;;6.90;5.05;;;7.00;71.00;;;;;;5036466;28;20079;-77
2022/03/08 10:21:43;;;;;;;8.35;5.35;;;7.00;70.40;;;;;;5050746;28;20069;-78
2022/03/08 10:24:24;;;;;;;6.25;5.55;;;7.00;69.10;;;;;;5036479;28;20075;-77
2022/03/08 10:26:55;;;;;;;8.10;5.72;;;7.00;68.20;;;;;;5030765;28;20112;-78
2022/03/08 10:29:27;;;;;;;8.25;5.20;;;7.10;67.20;;;;;;5035897;28;20029;-77
2022/03/08 10:32:20;;;;;;;5.88;5.28;;;7.20;67.50;;;;;;5035390;28;20049;-78
2022/03/08 10:34:53;;;;;;;7.20;5.15;;;7.10;68.40;;;;;;5027554;28;20030;-76
2022/03/08 10:37:20;;;;;;;5.57;4.68;;;7.20;66.90;;;;;;5034307;28;20611;-77
2022/03/08 10:39:57;;;;;;;7.30;5.15;;;7.20;66.70;;;;;;5035296;28;20489;-77
2022/03/08 10:42:30;;;;;;;6.25;5.32;;;7.40;66.50;;;;;;5031025;28;20059;-77
2022/03/08 10:45:04;;;;;;;6.43;4.55;;;7.50;65.60;;;;;;5026998;28;20544;-77
2022/03/08 10:47:38;;;;;;;6.15;5.00;;;7.70;64.20;;;;;;5033608;28;20034;-76
2022/03/08 10:50:04;;;;;;;7.95;4.43;;;7.60;63.70;;;;;;5033677;28;20508;-77
2022/03/08 10:52:33;;;;;;;7.80;4.82;;;7.60;63.50;;;;;;5051415;28;20157;-76
2022/03/08 10:55:21;;;;;;;5.65;4.47;;;7.60;62.70;;;;;;5033191;28;20029;-78
2022/03/08 10:57:50;;;;;;;5.72;4.72;;;7.50;62.00;;;;;;5034296;28;20121;-77
2022/03/08 11:00:20;;;;;;;5.80;3.97;;;7.40;62.60;;;;;;5034966;28;20559;-78
2022/03/08 11:03:05;;;;;;;7.20;5.13;;;7.40;62.20;;;;;;5034794;28;20029;-78
2022/03/08 11:05:34;;;;;;;5.30;4.32;;;7.40;63.10;;;;;;5034419;28;20021;-78
2022/03/08 11:08:00;;;;;;;6.30;3.95;;;7.60;61.50;;;;;;5025621;28;20029;-77
2022/03/08 11:10:27;;;;;;;5.72;5.13;;;7.50;60.90;;;;;;5027157;28;20777;-78
2022/03/08 11:12:54;;;;;;;4.80;4.30;;;7.70;61.60;;;;;;5028097;28;20033;-76
2022/03/08 11:15:21;;;;;;;5.47;4.95;;;7.80;61.50;;;;;;5031936;28;20029;-76
2022/03/08 11:17:51;;;;;;;5.55;4.72;;;7.70;62.00;;;;;;5050621;28;20033;-78
2022/03/08 11:20:18;;;;;;;5.07;4.25;;;7.80;61.70;;;;;;5033952;28;20107;-78
2022/03/08 11:22:46;;;;;;;5.47;3.53;;;8.00;60.90;;;;;;5042364;28;20049;-78
2022/03/08 11:25:16;;;;;;;6.10;5.10;;;8.30;59.20;;;;;;5031958;28;20028;-78
2022/03/08 11:27:44;;;;;;;5.40;4.70;;;8.30;59.60;;;;;;5034550;28;20026;-77
2022/03/08 11:30:13;;;;;;;11.10;4.30;;;8.20;59.80;;;;;;5035289;28;20030;-78
2022/03/08 11:32:58;;;;;;;5.13;4.03;;;8.30;58.60;;;;;;5032301;28;20025;-77
2022/03/08 11:35:52;;;;;;;6.80;5.15;;;8.40;58.80;;;;;;5036479;28;20083;-78
2022/03/08 11:38:17;;;;;;;4.00;3.60;;;8.50;58.40;;;;;;5031783;28;20028;-78
2022/03/08 11:40:55;;;;;;;4.78;3.78;;;8.60;58.10;;;;;;5031243;28;20033;-76
2022/03/08 11:43:35;;;;;;;5.60;4.15;;;8.60;57.90;;;;;;5048659;28;20064;-76
2022/03/08 11:46:19;;;;;;;7.88;4.53;;;8.60;58.20;;;;;;5047858;28;20025;-77
2022/03/08 11:48:54;;;;;;;5.38;3.80;;;8.60;57.70;;;;;;5025561;28;20036;-77
2022/03/08 11:51:21;;;;;;;6.88;4.28;;;8.60;57.50;;;;;;5028320;28;20389;-77
2022/03/08 11:53:47;;;;;;;5.38;4.70;;;8.50;57.80;;;;;;5027054;28;20021;-78
2022/03/08 11:56:20;;;;;;;5.70;4.72;;;8.50;57.60;;;;;;5038071;28;20114;-78
2022/03/08 11:58:47;;;;;;;4.53;4.07;;;8.90;57.00;;;;;;5034091;28;20040;-77
2022/03/08 12:01:28;;;;;;;5.75;4.30;;;9.00;56.40;;;;;;5024900;28;20083;-77
2022/03/08 12:03:56;;;;;;;5.03;4.22;;;8.80;56.80;;;;;;5047000;28;20512;-78
2022/03/08 12:06:30;;;;;;;5.55;4.78;;;9.10;56.80;;;;;;5033250;28;20037;-78
2022/03/08 12:09:11;;;;;;;5.10;4.25;;;9.10;56.50;;;;;;5047862;28;20371;-77
2022/03/08 12:12:03;;;;;;;5.17;4.67;;;9.20;56.50;;;;;;5035289;28;20017;-78
2022/03/08 12:14:30;;;;;;;5.00;4.40;;;9.20;56.60;;;;;;5027768;28;20340;-78
2022/03/08 12:17:09;;;;;;;5.65;4.72;;;9.40;57.20;;;;;;5046995;28;20033;-78
2022/03/08 12:19:59;;;;;;;6.97;5.95;;;9.50;56.50;;;;;;5044689;28;20040;-78
2022/03/08 12:22:32;;;;;;;6.18;5.50;;;9.40;56.60;;;;;;5033141;28;20029;-76
2022/03/08 12:24:59;;;;;;;8.15;5.15;;;9.20;56.50;;;;;;5029330;28;20040;-77
2022/03/08 12:27:47;;;;;;;5.57;4.65;;;9.00;56.70;;;;;;5022743;28;20021;-78
2022/03/08 12:30:12;;;;;;;4.65;4.22;;;9.30;55.80;;;;;;5034834;28;20029;-77
2022/03/08 12:32:44;;;;;;;6.28;5.18;;;9.30;55.70;;;;;;5028504;28;20047;-79
2022/03/08 12:35:18;;;;;;;5.22;4.72;;;9.50;55.20;;;;;;5031173;28;20022;-75
2022/03/08 12:37:51;;;;;;;5.45;4.25;;;9.30;56.00;;;;;;5032792;28;20025;-78
2022/03/08 12:40:30;;;;;;;6.70;5.45;;;9.50;56.10;;;;;;5045525;28;20030;-77